sensor_id;sensor_type;location;lat;lon;timestamp;temperature;humidity
40340;DHT22;26044;50.864;20.658;2022-09-03T00:02:02;10.70;99.90
40340;DHT22;26044;50.864;20.658;2022-09-03T00:07:44;10.60;99.90
40340;DHT22;26044;50.864;20.658;2022-09-03T00:10:22;10.60;99.90
40340;DHT22;26044;50.864;20.658;2022-09-03T00:12:55;10.60;99.90
40340;DHT22;26044;50.864;20.658;2022-09-03T00:15:23;10.50;99.90
40340;DHT22;26044;50.864;20.658;2022-09-03T00:20:41;10.60;99.90
40340;DHT22;26044;50.864;20.658;2022-09-03T00:23:15;10.60;99.90
40340;DHT22;26044;50.864;20.658;2022-09-03T00:25:51;10.60;99.90
40340;DHT22;26044;50.864;20.658;2022-09-03T00:28:25;10.60;99.90
40340;DHT22;26044;50.864;20.658;2022-09-03T00:31:17;10.50;99.90
40340;DHT22;26044;50.864;20.658;2022-09-03T00:33:47;10.50;99.90
40340;DHT22;26044;50.864;20.658;2022-09-03T00:36:27;10.50;99.90
40340;DHT22;26044;50.864;20.658;2022-09-03T00:38:58;10.40;99.90
40340;DHT22;26044;50.864;20.658;2022-09-03T00:55:41;10.30;99.90
40340;DHT22;26044;50.864;20.658;2022-09-03T01:00:44;10.30;99.90
40340;DHT22;26044;50.864;20.658;2022-09-03T01:06:08;10.30;99.90
40340;DHT22;26044;50.864;20.658;2022-09-03T01:09:05;10.30;99.90
40340;DHT22;26044;50.864;20.658;2022-09-03T01:11:53;10.30;99.90
40340;DHT22;26044;50.864;20.658;2022-09-03T01:14:56;10.30;99.90
40340;DHT22;26044;50.864;20.658;2022-09-03T01:17:35;10.30;99.90
40340;DHT22;26044;50.864;20.658;2022-09-03T01:20:19;10.30;99.90
40340;DHT22;26044;50.864;20.658;2022-09-03T01:25:48;10.30;99.90
40340;DHT22;26044;50.864;20.658;2022-09-03T01:28:49;10.20;99.90
40340;DHT22;26044;50.864;20.658;2022-09-03T01:37:04;10.20;99.90
40340;DHT22;26044;50.864;20.658;2022-09-03T01:51:20;10.20;99.90
40340;DHT22;26044;50.864;20.658;2022-09-03T01:54:21;10.20;99.90
40340;DHT22;26044;50.864;20.658;2022-09-03T01:57:18;10.20;99.90
40340;DHT22;26044;50.864;20.658;2022-09-03T02:00:18;10.20;99.90
40340;DHT22;26044;50.864;20.658;2022-09-03T02:02:50;10.20;99.90
40340;DHT22;26044;50.864;20.658;2022-09-03T02:05:23;10.20;99.90
40340;DHT22;26044;50.864;20.658;2022-09-03T02:07:58;10.20;99.90
40340;DHT22;26044;50.864;20.658;2022-09-03T02:10:37;10.10;99.90
40340;DHT22;26044;50.864;20.658;2022-09-03T02:13:15;10.20;99.90
40340;DHT22;26044;50.864;20.658;2022-09-03T02:15:45;10.20;99.90
40340;DHT22;26044;50.864;20.658;2022-09-03T02:18:16;10.20;99.90
40340;DHT22;26044;50.864;20.658;2022-09-03T02:20:44;10.20;99.90
40340;DHT22;26044;50.864;20.658;2022-09-03T02:23:14;10.20;99.90
40340;DHT22;26044;50.864;20.658;2022-09-03T02:25:45;10.10;99.90
40340;DHT22;26044;50.864;20.658;2022-09-03T02:28:13;10.10;99.90
40340;DHT22;26044;50.864;20.658;2022-09-03T02:30:43;9.90;99.90
40340;DHT22;26044;50.864;20.658;2022-09-03T02:33:10;10.00;99.90
40340;DHT22;26044;50.864;20.658;2022-09-03T02:35:37;10.00;99.90
40340;DHT22;26044;50.864;20.658;2022-09-03T02:38:13;9.90;99.90
40340;DHT22;26044;50.864;20.658;2022-09-03T02:40:40;9.80;99.90
40340;DHT22;26044;50.864;20.658;2022-09-03T02:43:20;9.80;99.90
40340;DHT22;26044;50.864;20.658;2022-09-03T02:45:54;9.80;99.90
40340;DHT22;26044;50.864;20.658;2022-09-03T02:48:23;9.90;99.90
40340;DHT22;26044;50.864;20.658;2022-09-03T02:50:50;9.90;99.90
40340;DHT22;26044;50.864;20.658;2022-09-03T02:53:17;9.90;99.90
40340;DHT22;26044;50.864;20.658;2022-09-03T02:55:43;9.70;99.90
40340;DHT22;26044;50.864;20.658;2022-09-03T02:58:10;9.70;99.90
40340;DHT22;26044;50.864;20.658;2022-09-03T03:00:37;9.80;99.90
40340;DHT22;26044;50.864;20.658;2022-09-03T03:03:04;9.80;99.90
40340;DHT22;26044;50.864;20.658;2022-09-03T03:05:55;9.80;99.90
40340;DHT22;26044;50.864;20.658;2022-09-03T03:08:26;9.80;99.90
40340;DHT22;26044;50.864;20.658;2022-09-03T03:10:55;9.90;99.90
40340;DHT22;26044;50.864;20.658;2022-09-03T03:13:25;9.80;99.90
40340;DHT22;26044;50.864;20.658;2022-09-03T03:16:03;9.80;99.90
40340;DHT22;26044;50.864;20.658;2022-09-03T03:18:32;9.70;99.90
40340;DHT22;26044;50.864;20.658;2022-09-03T03:21:05;9.80;99.90
40340;DHT22;26044;50.864;20.658;2022-09-03T03:23:33;9.80;99.90
40340;DHT22;26044;50.864;20.658;2022-09-03T03:26:04;9.80;99.90
40340;DHT22;26044;50.864;20.658;2022-09-03T03:28:31;9.80;99.90
40340;DHT22;26044;50.864;20.658;2022-09-03T03:31:10;9.70;99.90
40340;DHT22;26044;50.864;20.658;2022-09-03T03:33:38;9.70;99.90
40340;DHT22;26044;50.864;20.658;2022-09-03T03:36:14;9.70;99.90
40340;DHT22;26044;50.864;20.658;2022-09-03T03:38:43;9.60;99.90
40340;DHT22;26044;50.864;20.658;2022-09-03T03:41:17;9.70;99.90
40340;DHT22;26044;50.864;20.658;2022-09-03T03:43:45;9.70;99.90
40340;DHT22;26044;50.864;20.658;2022-09-03T03:46:12;9.70;99.90
40340;DHT22;26044;50.864;20.658;2022-09-03T03:48:40;9.60;99.90
40340;DHT22;26044;50.864;20.658;2022-09-03T03:51:08;9.60;99.90
40340;DHT22;26044;50.864;20.658;2022-09-03T03:53:37;9.60;99.90
40340;DHT22;26044;50.864;20.658;2022-09-03T03:56:06;9.60;99.90
40340;DHT22;26044;50.864;20.658;2022-09-03T03:58:36;9.60;99.90
40340;DHT22;26044;50.864;20.658;2022-09-03T04:01:11;9.60;99.90
40340;DHT22;26044;50.864;20.658;2022-09-03T04:03:40;9.70;99.90
40340;DHT22;26044;50.864;20.658;2022-09-03T04:06:08;9.80;99.90
40340;DHT22;26044;50.864;20.658;2022-09-03T04:08:37;9.70;99.90
40340;DHT22;26044;50.864;20.658;2022-09-03T04:11:06;9.80;99.90
40340;DHT22;26044;50.864;20.658;2022-09-03T04:13:35;9.80;99.90
40340;DHT22;26044;50.864;20.658;2022-09-03T04:16:23;9.90;99.90
40340;DHT22;26044;50.864;20.658;2022-09-03T04:18:52;9.90;99.90
40340;DHT22;26044;50.864;20.658;2022-09-03T04:21:22;9.90;99.90
40340;DHT22;26044;50.864;20.658;2022-09-03T04:23:50;9.90;99.90
40340;DHT22;26044;50.864;20.658;2022-09-03T04:26:28;10.00;99.90
40340;DHT22;26044;50.864;20.658;2022-09-03T04:28:59;10.00;99.90
40340;DHT22;26044;50.864;20.658;2022-09-03T04:31:31;10.00;99.90
40340;DHT22;26044;50.864;20.658;2022-09-03T04:33:58;10.10;99.90
40340;DHT22;26044;50.864;20.658;2022-09-03T04:36:27;10.10;99.90
40340;DHT22;26044;50.864;20.658;2022-09-03T04:38:56;10.20;99.90
40340;DHT22;26044;50.864;20.658;2022-09-03T04:41:26;10.10;99.90
40340;DHT22;26044;50.864;20.658;2022-09-03T04:43:54;10.30;99.90
40340;DHT22;26044;50.864;20.658;2022-09-03T04:46:24;10.20;99.90
40340;DHT22;26044;50.864;20.658;2022-09-03T04:48:53;10.20;99.90
40340;DHT22;26044;50.864;20.658;2022-09-03T04:51:23;10.20;99.90
40340;DHT22;26044;50.864;20.658;2022-09-03T04:53:56;10.30;99.90
40340;DHT22;26044;50.864;20.658;2022-09-03T04:56:25;10.30;99.90
40340;DHT22;26044;50.864;20.658;2022-09-03T04:58:57;10.40;99.90
40340;DHT22;26044;50.864;20.658;2022-09-03T05:01:26;10.40;99.90
40340;DHT22;26044;50.864;20.658;2022-09-03T05:03:58;10.50;99.90
40340;DHT22;26044;50.864;20.658;2022-09-03T05:06:27;10.60;99.90
40340;DHT22;26044;50.864;20.658;2022-09-03T05:08:55;10.60;99.90
40340;DHT22;26044;50.864;20.658;2022-09-03T05:11:23;10.70;99.90
40340;DHT22;26044;50.864;20.658;2022-09-03T05:13:52;10.80;99.90
40340;DHT22;26044;50.864;20.658;2022-09-03T05:16:20;10.90;99.90
40340;DHT22;26044;50.864;20.658;2022-09-03T05:18:47;10.90;99.90
40340;DHT22;26044;50.864;20.658;2022-09-03T05:21:17;11.00;99.90
40340;DHT22;26044;50.864;20.658;2022-09-03T05:23:46;11.10;99.90
40340;DHT22;26044;50.864;20.658;2022-09-03T05:26:16;11.20;99.90
40340;DHT22;26044;50.864;20.658;2022-09-03T05:28:44;11.40;99.90
40340;DHT22;26044;50.864;20.658;2022-09-03T05:33:49;11.60;99.90
40340;DHT22;26044;50.864;20.658;2022-09-03T05:36:19;11.70;99.90
40340;DHT22;26044;50.864;20.658;2022-09-03T05:38:48;11.80;99.90
40340;DHT22;26044;50.864;20.658;2022-09-03T05:41:16;12.00;99.90
40340;DHT22;26044;50.864;20.658;2022-09-03T05:43:47;12.10;99.90
40340;DHT22;26044;50.864;20.658;2022-09-03T05:46:17;12.10;99.90
40340;DHT22;26044;50.864;20.658;2022-09-03T05:48:45;12.30;99.90
40340;DHT22;26044;50.864;20.658;2022-09-03T05:51:16;12.30;99.90
40340;DHT22;26044;50.864;20.658;2022-09-03T05:53:47;12.40;99.90
40340;DHT22;26044;50.864;20.658;2022-09-03T05:56:17;12.50;99.90
40340;DHT22;26044;50.864;20.658;2022-09-03T05:58:46;12.50;99.90
40340;DHT22;26044;50.864;20.658;2022-09-03T06:01:14;12.70;99.90
40340;DHT22;26044;50.864;20.658;2022-09-03T06:03:42;12.80;99.90
40340;DHT22;26044;50.864;20.658;2022-09-03T06:06:10;12.90;99.90
40340;DHT22;26044;50.864;20.658;2022-09-03T06:08:40;13.00;99.90
40340;DHT22;26044;50.864;20.658;2022-09-03T06:11:08;13.10;99.90
40340;DHT22;26044;50.864;20.658;2022-09-03T06:13:35;13.20;99.90
40340;DHT22;26044;50.864;20.658;2022-09-03T06:16:05;13.30;99.90
40340;DHT22;26044;50.864;20.658;2022-09-03T06:18:32;13.40;99.90
40340;DHT22;26044;50.864;20.658;2022-09-03T06:21:01;13.50;99.90
40340;DHT22;26044;50.864;20.658;2022-09-03T06:23:29;13.60;99.90
40340;DHT22;26044;50.864;20.658;2022-09-03T06:26:10;13.70;99.90
40340;DHT22;26044;50.864;20.658;2022-09-03T06:28:39;13.80;99.90
40340;DHT22;26044;50.864;20.658;2022-09-03T06:31:08;13.90;99.90
40340;DHT22;26044;50.864;20.658;2022-09-03T06:33:36;14.00;99.90
40340;DHT22;26044;50.864;20.658;2022-09-03T06:36:06;14.10;99.90
40340;DHT22;26044;50.864;20.658;2022-09-03T06:38:35;14.20;99.90
40340;DHT22;26044;50.864;20.658;2022-09-03T06:41:05;14.30;99.90
40340;DHT22;26044;50.864;20.658;2022-09-03T06:43:34;14.40;99.90
40340;DHT22;26044;50.864;20.658;2022-09-03T06:46:03;14.60;99.90
40340;DHT22;26044;50.864;20.658;2022-09-03T06:48:32;14.70;99.90
40340;DHT22;26044;50.864;20.658;2022-09-03T06:51:04;14.80;99.90
40340;DHT22;26044;50.864;20.658;2022-09-03T06:53:34;15.00;99.90
40340;DHT22;26044;50.864;20.658;2022-09-03T06:56:06;15.00;99.90
40340;DHT22;26044;50.864;20.658;2022-09-03T06:58:35;15.20;99.90
40340;DHT22;26044;50.864;20.658;2022-09-03T07:01:09;15.20;99.90
40340;DHT22;26044;50.864;20.658;2022-09-03T07:03:37;15.40;99.90
40340;DHT22;26044;50.864;20.658;2022-09-03T07:06:09;15.50;99.90
40340;DHT22;26044;50.864;20.658;2022-09-03T07:08:36;15.60;99.90
40340;DHT22;26044;50.864;20.658;2022-09-03T07:11:05;15.80;99.90
40340;DHT22;26044;50.864;20.658;2022-09-03T07:13:36;15.90;99.90
40340;DHT22;26044;50.864;20.658;2022-09-03T07:16:06;16.00;99.90
40340;DHT22;26044;50.864;20.658;2022-09-03T07:18:34;16.20;99.90
40340;DHT22;26044;50.864;20.658;2022-09-03T07:21:07;16.30;99.90
40340;DHT22;26044;50.864;20.658;2022-09-03T07:23:35;16.40;99.90
40340;DHT22;26044;50.864;20.658;2022-09-03T07:26:06;16.50;99.90
40340;DHT22;26044;50.864;20.658;2022-09-03T07:28:35;16.60;99.90
40340;DHT22;26044;50.864;20.658;2022-09-03T07:33:31;16.70;99.90
40340;DHT22;26044;50.864;20.658;2022-09-03T07:36:04;16.80;99.90
40340;DHT22;26044;50.864;20.658;2022-09-03T07:38:35;16.90;99.90
40340;DHT22;26044;50.864;20.658;2022-09-03T07:41:04;17.00;99.90
40340;DHT22;26044;50.864;20.658;2022-09-03T07:43:34;16.90;99.90
40340;DHT22;26044;50.864;20.658;2022-09-03T07:46:01;17.00;99.90
40340;DHT22;26044;50.864;20.658;2022-09-03T07:48:30;17.00;99.90
40340;DHT22;26044;50.864;20.658;2022-09-03T07:51:02;17.00;99.90
40340;DHT22;26044;50.864;20.658;2022-09-03T07:53:29;17.00;99.90
40340;DHT22;26044;50.864;20.658;2022-09-03T07:56:07;16.90;99.90
40340;DHT22;26044;50.864;20.658;2022-09-03T07:58:37;17.00;99.90
40340;DHT22;26044;50.864;20.658;2022-09-03T08:01:15;17.00;99.90
40340;DHT22;26044;50.864;20.658;2022-09-03T08:03:44;17.00;99.90
40340;DHT22;26044;50.864;20.658;2022-09-03T08:06:12;17.00;99.90
40340;DHT22;26044;50.864;20.658;2022-09-03T08:08:39;17.10;99.90
40340;DHT22;26044;50.864;20.658;2022-09-03T08:11:07;17.10;99.90
40340;DHT22;26044;50.864;20.658;2022-09-03T08:13:42;17.20;99.90
40340;DHT22;26044;50.864;20.658;2022-09-03T08:16:11;17.30;99.90
40340;DHT22;26044;50.864;20.658;2022-09-03T08:18:38;17.40;99.90
40340;DHT22;26044;50.864;20.658;2022-09-03T08:21:11;17.60;99.90
40340;DHT22;26044;50.864;20.658;2022-09-03T08:23:43;17.50;99.90
40340;DHT22;26044;50.864;20.658;2022-09-03T08:26:10;17.50;99.90
40340;DHT22;26044;50.864;20.658;2022-09-03T08:28:37;17.50;99.90
40340;DHT22;26044;50.864;20.658;2022-09-03T08:31:16;17.60;99.90
40340;DHT22;26044;50.864;20.658;2022-09-03T08:33:47;17.70;99.90
40340;DHT22;26044;50.864;20.658;2022-09-03T08:36:27;17.70;99.90
40340;DHT22;26044;50.864;20.658;2022-09-03T08:38:57;17.90;99.90
40340;DHT22;26044;50.864;20.658;2022-09-03T08:41:43;18.00;99.90
40340;DHT22;26044;50.864;20.658;2022-09-03T08:49:33;18.20;99.90
40340;DHT22;26044;50.864;20.658;2022-09-03T08:52:13;18.30;99.90
40340;DHT22;26044;50.864;20.658;2022-09-03T08:54:44;18.50;99.90
40340;DHT22;26044;50.864;20.658;2022-09-03T08:57:13;18.50;99.90
40340;DHT22;26044;50.864;20.658;2022-09-03T08:59:40;18.50;99.90
40340;DHT22;26044;50.864;20.658;2022-09-03T09:02:25;18.50;99.90
40340;DHT22;26044;50.864;20.658;2022-09-03T09:07:45;18.60;99.90
40340;DHT22;26044;50.864;20.658;2022-09-03T09:10:43;18.80;99.90
40340;DHT22;26044;50.864;20.658;2022-09-03T09:13:35;18.80;99.90
40340;DHT22;26044;50.864;20.658;2022-09-03T09:18:50;18.70;99.90
40340;DHT22;26044;50.864;20.658;2022-09-03T09:21:36;18.60;99.90
40340;DHT22;26044;50.864;20.658;2022-09-03T09:24:28;18.60;99.90
40340;DHT22;26044;50.864;20.658;2022-09-03T09:27:03;18.60;99.90
40340;DHT22;26044;50.864;20.658;2022-09-03T09:29:39;18.50;99.90
40340;DHT22;26044;50.864;20.658;2022-09-03T09:32:09;18.50;99.90
40340;DHT22;26044;50.864;20.658;2022-09-03T09:34:38;18.50;99.90
40340;DHT22;26044;50.864;20.658;2022-09-03T09:37:14;18.40;99.90
40340;DHT22;26044;50.864;20.658;2022-09-03T09:39:53;18.40;99.90
40340;DHT22;26044;50.864;20.658;2022-09-03T09:42:22;18.40;99.90
40340;DHT22;26044;50.864;20.658;2022-09-03T09:44:48;18.30;99.90
40340;DHT22;26044;50.864;20.658;2022-09-03T09:47:31;18.20;99.90
40340;DHT22;26044;50.864;20.658;2022-09-03T09:50:02;18.30;99.90
40340;DHT22;26044;50.864;20.658;2022-09-03T09:52:30;18.20;99.90
40340;DHT22;26044;50.864;20.658;2022-09-03T09:55:15;18.30;99.90
40340;DHT22;26044;50.864;20.658;2022-09-03T09:57:43;18.50;99.90
40340;DHT22;26044;50.864;20.658;2022-09-03T10:00:13;18.80;99.90
40340;DHT22;26044;50.864;20.658;2022-09-03T10:02:47;19.00;99.90
40340;DHT22;26044;50.864;20.658;2022-09-03T10:05:21;18.90;99.90
40340;DHT22;26044;50.864;20.658;2022-09-03T10:07:57;18.90;99.90
40340;DHT22;26044;50.864;20.658;2022-09-03T10:10:25;19.20;99.90
40340;DHT22;26044;50.864;20.658;2022-09-03T10:12:59;19.00;99.90
40340;DHT22;26044;50.864;20.658;2022-09-03T10:21:11;18.90;99.90
40340;DHT22;26044;50.864;20.658;2022-09-03T10:23:51;19.20;99.90
40340;DHT22;26044;50.864;20.658;2022-09-03T10:26:21;19.40;99.90
40340;DHT22;26044;50.864;20.658;2022-09-03T10:29:03;19.40;99.90
40340;DHT22;26044;50.864;20.658;2022-09-03T10:37:58;19.20;99.90
40340;DHT22;26044;50.864;20.658;2022-09-03T10:40:47;19.00;99.90
40340;DHT22;26044;50.864;20.658;2022-09-03T10:43:49;19.00;99.90
40340;DHT22;26044;50.864;20.658;2022-09-03T10:46:26;19.00;99.90
40340;DHT22;26044;50.864;20.658;2022-09-03T10:49:01;19.00;99.60
40340;DHT22;26044;50.864;20.658;2022-09-03T10:51:37;19.10;99.90
40340;DHT22;26044;50.864;20.658;2022-09-03T10:57:12;19.20;97.50
40340;DHT22;26044;50.864;20.658;2022-09-03T11:05:19;19.40;97.60
40340;DHT22;26044;50.864;20.658;2022-09-03T11:07:51;19.50;97.30
40340;DHT22;26044;50.864;20.658;2022-09-03T11:10:30;19.60;96.90
40340;DHT22;26044;50.864;20.658;2022-09-03T11:13:16;19.60;95.50
40340;DHT22;26044;50.864;20.658;2022-09-03T11:16:02;19.60;95.10
40340;DHT22;26044;50.864;20.658;2022-09-03T11:21:04;19.60;94.10
40340;DHT22;26044;50.864;20.658;2022-09-03T11:23:45;19.50;93.20
40340;DHT22;26044;50.864;20.658;2022-09-03T11:26:16;19.40;94.00
40340;DHT22;26044;50.864;20.658;2022-09-03T11:29:09;19.40;93.40
40340;DHT22;26044;50.864;20.658;2022-09-03T11:35:00;19.50;92.00
40340;DHT22;26044;50.864;20.658;2022-09-03T11:37:26;19.50;91.40
40340;DHT22;26044;50.864;20.658;2022-09-03T11:42:38;19.60;92.60
40340;DHT22;26044;50.864;20.658;2022-09-03T11:47:56;19.80;92.40
40340;DHT22;26044;50.864;20.658;2022-09-03T11:50:27;19.70;89.30
40340;DHT22;26044;50.864;20.658;2022-09-03T11:53:07;19.70;90.10
40340;DHT22;26044;50.864;20.658;2022-09-03T11:55:53;19.60;88.40
40340;DHT22;26044;50.864;20.658;2022-09-03T12:00:48;19.60;90.80
40340;DHT22;26044;50.864;20.658;2022-09-03T12:03:36;19.60;90.70
40340;DHT22;26044;50.864;20.658;2022-09-03T12:20:42;19.50;92.60
40340;DHT22;26044;50.864;20.658;2022-09-03T12:23:10;19.40;92.40
40340;DHT22;26044;50.864;20.658;2022-09-03T12:25:44;19.40;93.80
40340;DHT22;26044;50.864;20.658;2022-09-03T12:28:19;19.50;92.90
40340;DHT22;26044;50.864;20.658;2022-09-03T12:30:50;19.50;93.30
40340;DHT22;26044;50.864;20.658;2022-09-03T12:33:21;19.50;92.80
40340;DHT22;26044;50.864;20.658;2022-09-03T12:35:59;19.60;92.40
40340;DHT22;26044;50.864;20.658;2022-09-03T12:38:28;19.70;92.80
40340;DHT22;26044;50.864;20.658;2022-09-03T12:40:55;19.60;92.30
40340;DHT22;26044;50.864;20.658;2022-09-03T12:43:50;19.50;92.50
40340;DHT22;26044;50.864;20.658;2022-09-03T12:46:17;19.30;93.40
40340;DHT22;26044;50.864;20.658;2022-09-03T12:48:58;19.20;94.00
40340;DHT22;26044;50.864;20.658;2022-09-03T12:51:49;19.30;94.90
40340;DHT22;26044;50.864;20.658;2022-09-03T12:54:25;19.30;94.80
40340;DHT22;26044;50.864;20.658;2022-09-03T12:56:56;19.30;94.90
40340;DHT22;26044;50.864;20.658;2022-09-03T12:59:26;19.40;95.00
40340;DHT22;26044;50.864;20.658;2022-09-03T13:01:59;19.30;93.00
40340;DHT22;26044;50.864;20.658;2022-09-03T13:04:31;19.30;93.30
40340;DHT22;26044;50.864;20.658;2022-09-03T13:07:03;19.40;94.30
40340;DHT22;26044;50.864;20.658;2022-09-03T13:09:34;19.40;93.70
40340;DHT22;26044;50.864;20.658;2022-09-03T13:12:02;19.50;94.10
40340;DHT22;26044;50.864;20.658;2022-09-03T13:14:43;19.50;94.80
40340;DHT22;26044;50.864;20.658;2022-09-03T13:23:09;19.20;96.40
40340;DHT22;26044;50.864;20.658;2022-09-03T13:25:50;19.10;96.00
40340;DHT22;26044;50.864;20.658;2022-09-03T13:28:33;19.00;96.00
40340;DHT22;26044;50.864;20.658;2022-09-03T13:34:36;19.00;95.40
40340;DHT22;26044;50.864;20.658;2022-09-03T13:46:00;19.10;97.80
40340;DHT22;26044;50.864;20.658;2022-09-03T13:54:22;19.70;97.40
40340;DHT22;26044;50.864;20.658;2022-09-03T13:57:29;19.80;99.20
40340;DHT22;26044;50.864;20.658;2022-09-03T14:00:12;19.70;97.40
40340;DHT22;26044;50.864;20.658;2022-09-03T14:05:30;19.60;97.90
40340;DHT22;26044;50.864;20.658;2022-09-03T14:11:18;19.50;99.90
40340;DHT22;26044;50.864;20.658;2022-09-03T14:14:07;19.50;99.90
40340;DHT22;26044;50.864;20.658;2022-09-03T14:16:55;19.50;99.90
40340;DHT22;26044;50.864;20.658;2022-09-03T14:20:02;19.50;99.90
40340;DHT22;26044;50.864;20.658;2022-09-03T14:25:55;19.60;99.90
40340;DHT22;26044;50.864;20.658;2022-09-03T14:28:30;19.60;99.90
40340;DHT22;26044;50.864;20.658;2022-09-03T14:36:59;19.80;97.00
40340;DHT22;26044;50.864;20.658;2022-09-03T14:39:38;19.80;96.80
40340;DHT22;26044;50.864;20.658;2022-09-03T14:44:44;19.60;96.20
40340;DHT22;26044;50.864;20.658;2022-09-03T14:47:52;19.50;96.60
40340;DHT22;26044;50.864;20.658;2022-09-03T14:56:09;19.00;99.90
40340;DHT22;26044;50.864;20.658;2022-09-03T14:59:04;18.90;99.90
40340;DHT22;26044;50.864;20.658;2022-09-03T15:01:35;18.70;99.90
40340;DHT22;26044;50.864;20.658;2022-09-03T15:09:40;18.50;99.90
40340;DHT22;26044;50.864;20.658;2022-09-03T15:12:43;18.40;99.90
40340;DHT22;26044;50.864;20.658;2022-09-03T15:15:21;18.50;99.90
40340;DHT22;26044;50.864;20.658;2022-09-03T15:18:05;18.40;99.90
40340;DHT22;26044;50.864;20.658;2022-09-03T15:20:49;18.50;99.90
40340;DHT22;26044;50.864;20.658;2022-09-03T15:23:37;18.50;99.90
40340;DHT22;26044;50.864;20.658;2022-09-03T15:26:39;18.50;99.90
40340;DHT22;26044;50.864;20.658;2022-09-03T15:32:29;18.60;99.90
40340;DHT22;26044;50.864;20.658;2022-09-03T15:35:08;18.60;99.90
40340;DHT22;26044;50.864;20.658;2022-09-03T15:37:53;18.60;99.90
40340;DHT22;26044;50.864;20.658;2022-09-03T15:40:32;18.60;99.90
40340;DHT22;26044;50.864;20.658;2022-09-03T15:43:21;18.60;99.90
40340;DHT22;26044;50.864;20.658;2022-09-03T15:45:56;18.50;99.90
40340;DHT22;26044;50.864;20.658;2022-09-03T15:48:48;18.50;99.90
40340;DHT22;26044;50.864;20.658;2022-09-03T15:51:24;18.50;99.90
40340;DHT22;26044;50.864;20.658;2022-09-03T15:54:06;18.50;99.90
40340;DHT22;26044;50.864;20.658;2022-09-03T15:59:50;18.40;99.90
40340;DHT22;26044;50.864;20.658;2022-09-03T16:02:30;18.40;99.90
40340;DHT22;26044;50.864;20.658;2022-09-03T16:05:13;18.50;99.90
40340;DHT22;26044;50.864;20.658;2022-09-03T16:08:07;18.50;99.90
40340;DHT22;26044;50.864;20.658;2022-09-03T16:10:45;18.50;99.90
40340;DHT22;26044;50.864;20.658;2022-09-03T16:19:55;18.30;99.90
40340;DHT22;26044;50.864;20.658;2022-09-03T16:22:27;18.30;99.90
40340;DHT22;26044;50.864;20.658;2022-09-03T16:25:00;18.30;99.90
40340;DHT22;26044;50.864;20.658;2022-09-03T16:33:41;18.10;99.90
40340;DHT22;26044;50.864;20.658;2022-09-03T16:41:52;17.90;99.90
40340;DHT22;26044;50.864;20.658;2022-09-03T17:02:05;17.30;99.90
40340;DHT22;26044;50.864;20.658;2022-09-03T17:12:45;16.70;99.90
40340;DHT22;26044;50.864;20.658;2022-09-03T17:15:34;16.60;99.90
40340;DHT22;26044;50.864;20.658;2022-09-03T17:18:28;16.40;99.90
40340;DHT22;26044;50.864;20.658;2022-09-03T17:21:07;16.30;99.90
40340;DHT22;26044;50.864;20.658;2022-09-03T17:24:21;16.10;99.90
40340;DHT22;26044;50.864;20.658;2022-09-03T17:32:16;15.80;99.90
40340;DHT22;26044;50.864;20.658;2022-09-03T17:38:25;15.50;99.90
40340;DHT22;26044;50.864;20.658;2022-09-03T17:41:03;15.40;99.90
40340;DHT22;26044;50.864;20.658;2022-09-03T17:44:05;15.30;99.90
40340;DHT22;26044;50.864;20.658;2022-09-03T17:49:49;15.10;99.90
40340;DHT22;26044;50.864;20.658;2022-09-03T17:55:20;15.10;99.90
40340;DHT22;26044;50.864;20.658;2022-09-03T17:58:11;15.00;99.90
40340;DHT22;26044;50.864;20.658;2022-09-03T18:00:44;14.90;99.90
40340;DHT22;26044;50.864;20.658;2022-09-03T18:03:23;14.90;99.90
40340;DHT22;26044;50.864;20.658;2022-09-03T18:05:56;14.90;99.90
40340;DHT22;26044;50.864;20.658;2022-09-03T18:11:39;14.70;99.90
40340;DHT22;26044;50.864;20.658;2022-09-03T18:14:14;14.70;99.90
40340;DHT22;26044;50.864;20.658;2022-09-03T18:19:45;14.50;99.90
40340;DHT22;26044;50.864;20.658;2022-09-03T18:25:47;14.50;99.90
40340;DHT22;26044;50.864;20.658;2022-09-03T18:28:40;14.40;99.90
40340;DHT22;26044;50.864;20.658;2022-09-03T18:31:26;14.40;99.90
40340;DHT22;26044;50.864;20.658;2022-09-03T18:34:12;14.40;99.90
40340;DHT22;26044;50.864;20.658;2022-09-03T18:36:58;14.30;99.90
40340;DHT22;26044;50.864;20.658;2022-09-03T18:39:44;14.30;99.90
40340;DHT22;26044;50.864;20.658;2022-09-03T18:45:37;14.10;99.90
40340;DHT22;26044;50.864;20.658;2022-09-03T18:52:58;14.00;99.90
40340;DHT22;26044;50.864;20.658;2022-09-03T18:55:41;13.90;99.90
40340;DHT22;26044;50.864;20.658;2022-09-03T19:01:38;13.80;99.90
40340;DHT22;26044;50.864;20.658;2022-09-03T19:05:05;13.70;99.90
40340;DHT22;26044;50.864;20.658;2022-09-03T19:08:01;13.70;99.90
40340;DHT22;26044;50.864;20.658;2022-09-03T19:10:54;13.60;99.90
40340;DHT22;26044;50.864;20.658;2022-09-03T19:13:41;13.60;99.90
40340;DHT22;26044;50.864;20.658;2022-09-03T19:19:38;13.50;99.90
40340;DHT22;26044;50.864;20.658;2022-09-03T19:22:37;13.40;99.90
40340;DHT22;26044;50.864;20.658;2022-09-03T19:25:25;13.30;99.90
40340;DHT22;26044;50.864;20.658;2022-09-03T19:28:21;13.40;99.90
40340;DHT22;26044;50.864;20.658;2022-09-03T19:34:39;13.50;99.90
40340;DHT22;26044;50.864;20.658;2022-09-03T19:37:38;13.50;99.90
40340;DHT22;26044;50.864;20.658;2022-09-03T19:41:02;13.50;99.90
40340;DHT22;26044;50.864;20.658;2022-09-03T19:46:59;13.40;99.90
40340;DHT22;26044;50.864;20.658;2022-09-03T19:53:02;13.20;99.90
40340;DHT22;26044;50.864;20.658;2022-09-03T19:55:54;13.20;99.90
40340;DHT22;26044;50.864;20.658;2022-09-03T19:58:47;13.10;99.90
40340;DHT22;26044;50.864;20.658;2022-09-03T20:01:35;13.00;99.90
40340;DHT22;26044;50.864;20.658;2022-09-03T20:04:33;13.00;99.90
40340;DHT22;26044;50.864;20.658;2022-09-03T20:07:20;13.00;99.90
40340;DHT22;26044;50.864;20.658;2022-09-03T20:10:09;13.00;99.90
40340;DHT22;26044;50.864;20.658;2022-09-03T20:13:21;12.90;99.90
40340;DHT22;26044;50.864;20.658;2022-09-03T20:16:12;12.90;99.90
40340;DHT22;26044;50.864;20.658;2022-09-03T20:22:17;12.90;99.90
40340;DHT22;26044;50.864;20.658;2022-09-03T20:25:05;12.80;99.90
40340;DHT22;26044;50.864;20.658;2022-09-03T20:30:55;12.80;99.90
40340;DHT22;26044;50.864;20.658;2022-09-03T20:34:03;12.70;99.90
40340;DHT22;26044;50.864;20.658;2022-09-03T20:40:18;12.80;99.90
40340;DHT22;26044;50.864;20.658;2022-09-03T20:45:31;12.70;99.90
40340;DHT22;26044;50.864;20.658;2022-09-03T20:48:17;12.70;99.90
40340;DHT22;26044;50.864;20.658;2022-09-03T20:51:14;12.70;99.90